createdAt,value
2022-08-22T00:02:09.077Z,5.30
2022-08-22T00:12:08.405Z,5.30
2022-08-22T00:22:08.420Z,5.30
2022-08-22T00:27:08.404Z,5.30
2022-08-22T00:32:08.422Z,6.00
2022-08-22T00:37:08.413Z,6.00
2022-08-22T00:47:08.428Z,8.30
2022-08-22T00:52:08.427Z,8.30
2022-08-22T00:57:08.424Z,8.30
2022-08-22T01:02:08.428Z,7.80
2022-08-22T01:12:08.641Z,7.80
2022-08-22T01:17:08.435Z,5.80
2022-08-22T01:27:08.431Z,5.80
2022-08-22T01:32:08.459Z,5.80
2022-08-22T01:37:08.441Z,5.80
2022-08-22T01:42:08.450Z,5.80
2022-08-22T01:47:08.448Z,5.70
2022-08-22T01:57:08.541Z,5.70
2022-08-22T02:02:08.453Z,7.80
2022-08-22T02:07:08.472Z,7.80
2022-08-22T02:12:21.481Z,7.80
2022-08-22T02:27:08.464Z,8.00
2022-08-22T02:32:08.467Z,7.20
2022-08-22T02:37:08.476Z,7.20
2022-08-22T02:42:08.468Z,7.20
2022-08-22T02:47:08.470Z,6.00
2022-08-22T02:57:14.318Z,6.00
2022-08-22T03:02:08.469Z,6.90
2022-08-22T03:07:08.478Z,6.90
2022-08-22T03:12:08.484Z,6.90
2022-08-22T03:17:08.493Z,6.70
2022-08-22T03:27:08.501Z,6.70
2022-08-22T03:32:08.488Z,7.20
2022-08-22T03:37:08.497Z,7.20
2022-08-22T03:42:08.523Z,7.20
2022-08-22T03:47:08.497Z,6.00
2022-08-22T03:52:08.514Z,6.00
2022-08-22T04:02:41.867Z,8.10
2022-08-22T04:07:28.102Z,8.10
2022-08-22T04:12:08.504Z,8.10
2022-08-22T04:17:08.521Z,8.90
2022-08-22T04:22:08.507Z,8.90
2022-08-22T04:27:08.520Z,8.90
2022-08-22T04:42:31.251Z,8.60
2022-08-22T04:47:08.520Z,5.40
2022-08-22T04:57:08.535Z,5.40
2022-08-22T05:02:08.799Z,6.40
2022-08-22T05:12:08.536Z,6.40
2022-08-22T05:17:08.538Z,7.20
2022-08-22T05:22:08.536Z,7.20
2022-08-22T05:32:08.556Z,8.30
2022-08-22T05:37:08.536Z,8.30
2022-08-22T05:42:08.535Z,8.30
2022-08-22T05:47:08.545Z,7.60
2022-08-22T05:52:08.770Z,7.60
2022-08-22T05:57:08.565Z,7.60
2022-08-22T06:02:08.579Z,7.50
2022-08-22T06:17:08.546Z,9.10
2022-08-22T06:22:08.561Z,9.10
2022-08-22T06:27:08.562Z,9.10
2022-08-22T06:37:08.587Z,10.30
2022-08-22T06:42:10.378Z,10.30
2022-08-22T06:47:08.574Z,7.90
2022-08-22T06:52:08.578Z,7.90
2022-08-22T06:57:08.573Z,7.90
2022-08-22T07:02:08.677Z,9.20
2022-08-22T07:07:08.584Z,9.20
2022-08-22T07:12:08.577Z,9.20
2022-08-22T07:17:08.588Z,6.70
2022-08-22T07:22:08.581Z,6.70
2022-08-22T07:27:08.586Z,6.70
2022-08-22T07:32:08.590Z,8.70
2022-08-22T07:37:08.591Z,8.70
2022-08-22T07:42:08.592Z,8.70
2022-08-22T07:52:08.594Z,10.70
2022-08-22T08:02:08.612Z,7.00
2022-08-22T08:07:08.832Z,7.00
2022-08-22T08:12:08.610Z,7.00
2022-08-22T08:17:08.605Z,6.10
2022-08-22T08:22:08.609Z,6.10
2022-08-22T08:32:08.687Z,9.50
2022-08-22T08:42:08.611Z,9.50
2022-08-22T08:47:08.616Z,8.20
2022-08-22T08:52:08.623Z,8.20
2022-08-22T08:57:08.630Z,8.20
2022-08-22T09:02:08.629Z,10.50
2022-08-22T09:07:08.618Z,10.50
2022-08-22T09:17:08.630Z,10.10
2022-08-22T09:22:14.352Z,10.10
2022-08-22T09:27:08.971Z,10.10
2022-08-22T09:32:13.160Z,8.40
2022-08-22T09:37:08.637Z,8.40
2022-08-22T09:42:08.654Z,8.40
2022-08-22T09:47:08.639Z,7.40
2022-08-22T09:52:15.174Z,7.40
2022-08-22T09:57:08.661Z,7.40
2022-08-22T10:02:15.545Z,6.20
2022-08-22T10:07:11.875Z,6.20
2022-08-22T10:12:12.387Z,6.20
2022-08-22T10:17:08.658Z,5.60
2022-08-22T10:22:08.661Z,5.60
2022-08-22T10:27:08.653Z,5.60
2022-08-22T10:32:10.782Z,9.80
2022-08-22T10:37:08.655Z,9.80
2022-08-22T10:42:08.668Z,9.80
2022-08-22T10:47:08.666Z,8.50
2022-08-22T10:52:15.816Z,8.50
2022-08-22T10:57:09.460Z,8.50
2022-08-22T11:02:08.704Z,11.10
2022-08-22T11:07:09.323Z,11.10
2022-08-22T11:12:08.673Z,11.10
2022-08-22T11:17:28.921Z,8.70
2022-08-22T11:22:10.035Z,8.70
2022-08-22T11:27:08.681Z,8.70
2022-08-22T11:32:08.681Z,5.40
2022-08-22T11:37:10.935Z,5.40
2022-08-22T11:42:08.694Z,5.40
2022-08-22T11:47:08.692Z,6.90
2022-08-22T11:52:08.703Z,6.90
2022-08-22T11:57:08.691Z,6.90
2022-08-22T12:02:08.873Z,6.50
2022-08-22T12:07:08.698Z,6.50
2022-08-22T12:17:08.790Z,5.60
2022-08-22T12:22:08.711Z,5.60
2022-08-22T12:27:08.727Z,5.60
2022-08-22T12:32:10.232Z,6.00
2022-08-22T12:37:08.770Z,6.00
2022-08-22T12:42:08.718Z,6.00
2022-08-22T12:47:09.143Z,6.90
2022-08-22T12:52:08.720Z,6.90
2022-08-22T12:57:10.470Z,6.90
2022-08-22T13:02:08.726Z,7.10
2022-08-22T13:07:08.720Z,7.10
2022-08-22T13:12:08.728Z,7.10
2022-08-22T13:27:08.751Z,7.30
2022-08-22T13:32:08.735Z,7.00
2022-08-22T13:42:14.257Z,7.00
2022-08-22T13:47:14.351Z,6.80
2022-08-22T13:52:14.548Z,6.80
2022-08-22T13:57:08.764Z,6.80
2022-08-22T14:02:08.756Z,7.20
2022-08-22T14:07:08.761Z,7.20
2022-08-22T14:12:12.190Z,7.20
2022-08-22T14:22:08.759Z,5.10
2022-08-22T14:27:08.769Z,5.10
2022-08-22T14:32:09.420Z,5.90
2022-08-22T14:52:08.961Z,7.50
2022-08-22T14:57:10.297Z,7.50
2022-08-22T15:02:08.844Z,8.50
2022-08-22T15:12:08.790Z,8.50
2022-08-22T15:17:08.789Z,6.50
2022-08-22T15:22:08.783Z,6.50
2022-08-22T15:27:08.800Z,6.50
2022-08-22T15:32:08.802Z,7.40
2022-08-22T15:37:14.273Z,7.40
2022-08-22T15:42:09.042Z,7.40
2022-08-22T15:47:10.882Z,6.30
2022-08-22T15:57:08.812Z,6.30
2022-08-22T16:02:08.843Z,6.20
2022-08-22T16:07:09.429Z,6.20
2022-08-22T16:12:08.810Z,6.20
2022-08-22T16:17:08.801Z,5.80
2022-08-22T16:22:08.812Z,5.80
2022-08-22T16:27:08.813Z,5.80
2022-08-22T16:32:08.824Z,5.10
2022-08-22T16:37:08.846Z,5.10
2022-08-22T16:42:08.831Z,5.10
2022-08-22T16:47:08.828Z,7.60
2022-08-22T16:52:08.830Z,7.60
2022-08-22T16:57:08.824Z,7.60
2022-08-22T17:02:08.840Z,6.20
2022-08-22T17:12:08.849Z,6.20
2022-08-22T17:22:08.836Z,4.90
2022-08-22T17:27:08.844Z,4.90
2022-08-22T17:32:08.863Z,5.10
2022-08-22T17:37:08.851Z,5.10
2022-08-22T17:47:08.857Z,4.30
2022-08-22T17:52:08.853Z,4.30
2022-08-22T17:57:08.866Z,4.30
2022-08-22T18:02:08.865Z,5.60
2022-08-22T18:07:08.853Z,5.60
2022-08-22T18:12:08.896Z,5.60
2022-08-22T18:17:08.876Z,5.50
2022-08-22T18:22:08.882Z,5.50
2022-08-22T18:32:08.892Z,5.90
2022-08-22T18:42:08.882Z,5.90
2022-08-22T18:47:08.879Z,5.20
2022-08-22T18:52:08.880Z,5.20
2022-08-22T18:57:08.891Z,5.20
2022-08-22T19:02:08.892Z,7.40
2022-08-22T19:07:08.904Z,7.40
2022-08-22T19:12:08.906Z,7.40
2022-08-22T19:22:08.904Z,4.60
2022-08-22T19:37:08.914Z,5.70
2022-08-22T19:42:08.901Z,5.70
2022-08-22T19:47:08.913Z,6.60
2022-08-22T19:57:10.217Z,6.60
2022-08-22T20:02:08.911Z,6.60
2022-08-22T20:12:13.247Z,6.60
2022-08-22T20:17:08.938Z,4.90
2022-08-22T20:22:08.942Z,4.90
2022-08-22T20:27:14.491Z,4.90
2022-08-22T20:37:31.978Z,6.40
2022-08-22T20:42:08.927Z,6.40
2022-08-22T20:52:08.940Z,6.10
2022-08-22T20:57:08.939Z,6.10
2022-08-22T21:02:08.942Z,5.00
2022-08-22T21:07:08.942Z,5.00
2022-08-22T21:12:08.942Z,5.00
2022-08-22T21:17:08.956Z,5.60
2022-08-22T21:22:08.967Z,5.60
2022-08-22T21:27:08.961Z,5.60
2022-08-22T21:52:08.956Z,8.20
2022-08-22T22:07:08.974Z,7.80
2022-08-22T22:12:08.979Z,7.80
2022-08-22T22:22:08.973Z,7.20
2022-08-22T22:27:11.702Z,7.20
2022-08-22T22:32:08.991Z,4.10
2022-08-22T22:37:08.986Z,4.10
2022-08-22T22:47:08.992Z,6.90
2022-08-22T22:52:08.989Z,6.90
2022-08-22T22:57:12.826Z,6.90
2022-08-22T23:12:08.993Z,6.60
2022-08-22T23:17:08.996Z,7.50
2022-08-22T23:22:09.011Z,7.50
2022-08-22T23:32:09.009Z,7.60
2022-08-22T23:42:09.042Z,7.60
2022-08-22T23:52:09.025Z,8.60
2022-08-22T23:57:11.811Z,8.60
